sensor_id;sensor_type;location;lat;lon;timestamp;temperature;humidity
8099;DHT22;4092;47.876;9.372;2022-10-29T00:00:37;13.50;99.90
8099;DHT22;4092;47.876;9.372;2022-10-29T00:03:04;13.50;99.90
8099;DHT22;4092;47.876;9.372;2022-10-29T00:05:31;13.50;99.90
8099;DHT22;4092;47.876;9.372;2022-10-29T00:07:58;13.50;99.90
8099;DHT22;4092;47.876;9.372;2022-10-29T00:10:25;13.50;99.90
8099;DHT22;4092;47.876;9.372;2022-10-29T00:12:52;13.50;99.90
8099;DHT22;4092;47.876;9.372;2022-10-29T00:15:20;13.50;99.90
8099;DHT22;4092;47.876;9.372;2022-10-29T00:17:47;13.40;99.90
8099;DHT22;4092;47.876;9.372;2022-10-29T00:20:14;13.40;99.90
8099;DHT22;4092;47.876;9.372;2022-10-29T00:22:43;13.40;99.90
8099;DHT22;4092;47.876;9.372;2022-10-29T00:25:10;13.40;99.90
8099;DHT22;4092;47.876;9.372;2022-10-29T00:27:37;13.30;99.90
8099;DHT22;4092;47.876;9.372;2022-10-29T00:30:04;13.30;99.90
8099;DHT22;4092;47.876;9.372;2022-10-29T00:32:33;13.30;99.90
8099;DHT22;4092;47.876;9.372;2022-10-29T00:35:00;13.30;99.90
8099;DHT22;4092;47.876;9.372;2022-10-29T00:37:27;13.30;99.90
8099;DHT22;4092;47.876;9.372;2022-10-29T00:39:54;13.30;99.90
8099;DHT22;4092;47.876;9.372;2022-10-29T00:42:21;13.30;99.90
8099;DHT22;4092;47.876;9.372;2022-10-29T00:44:48;13.20;99.90
8099;DHT22;4092;47.876;9.372;2022-10-29T00:47:21;13.20;99.90
8099;DHT22;4092;47.876;9.372;2022-10-29T00:49:53;13.30;99.90
8099;DHT22;4092;47.876;9.372;2022-10-29T00:52:24;13.30;99.90
8099;DHT22;4092;47.876;9.372;2022-10-29T00:54:54;13.40;99.90
8099;DHT22;4092;47.876;9.372;2022-10-29T00:57:24;13.50;99.90
8099;DHT22;4092;47.876;9.372;2022-10-29T00:59:53;13.60;99.90
8099;DHT22;4092;47.876;9.372;2022-10-29T01:02:21;13.60;99.90
8099;DHT22;4092;47.876;9.372;2022-10-29T01:04:51;13.60;99.90
8099;DHT22;4092;47.876;9.372;2022-10-29T01:07:19;13.60;99.90
8099;DHT22;4092;47.876;9.372;2022-10-29T01:09:46;13.70;99.90
8099;DHT22;4092;47.876;9.372;2022-10-29T01:12:26;13.60;99.90
8099;DHT22;4092;47.876;9.372;2022-10-29T01:15:03;13.60;99.90
8099;DHT22;4092;47.876;9.372;2022-10-29T01:17:43;13.70;99.90
8099;DHT22;4092;47.876;9.372;2022-10-29T01:20:40;13.80;99.90
8099;DHT22;4092;47.876;9.372;2022-10-29T01:23:34;13.80;99.90
8099;DHT22;4092;47.876;9.372;2022-10-29T01:29:14;13.90;99.90
8099;DHT22;4092;47.876;9.372;2022-10-29T01:31:48;13.90;99.90
8099;DHT22;4092;47.876;9.372;2022-10-29T01:34:23;13.80;99.90
8099;DHT22;4092;47.876;9.372;2022-10-29T01:36:53;13.90;99.90
8099;DHT22;4092;47.876;9.372;2022-10-29T01:39:28;14.10;99.90
8099;DHT22;4092;47.876;9.372;2022-10-29T01:42:02;14.10;99.90
8099;DHT22;4092;47.876;9.372;2022-10-29T01:44:35;14.10;99.90
8099;DHT22;4092;47.876;9.372;2022-10-29T01:47:11;14.10;99.90
8099;DHT22;4092;47.876;9.372;2022-10-29T01:49:43;14.00;99.90
8099;DHT22;4092;47.876;9.372;2022-10-29T01:52:13;14.00;99.90
8099;DHT22;4092;47.876;9.372;2022-10-29T01:54:41;14.10;99.90
8099;DHT22;4092;47.876;9.372;2022-10-29T01:57:29;14.10;99.90
8099;DHT22;4092;47.876;9.372;2022-10-29T01:59:59;14.10;99.90
8099;DHT22;4092;47.876;9.372;2022-10-29T02:02:40;14.10;99.90
8099;DHT22;4092;47.876;9.372;2022-10-29T02:05:17;14.10;99.90
8099;DHT22;4092;47.876;9.372;2022-10-29T02:07:50;14.20;99.90
8099;DHT22;4092;47.876;9.372;2022-10-29T02:10:25;14.20;99.90
8099;DHT22;4092;47.876;9.372;2022-10-29T02:12:54;14.30;99.90
8099;DHT22;4092;47.876;9.372;2022-10-29T02:15:25;14.30;99.90
8099;DHT22;4092;47.876;9.372;2022-10-29T02:17:59;14.30;99.90
8099;DHT22;4092;47.876;9.372;2022-10-29T02:20:26;14.50;99.90
8099;DHT22;4092;47.876;9.372;2022-10-29T02:22:54;14.40;99.90
8099;DHT22;4092;47.876;9.372;2022-10-29T02:25:21;14.60;99.90
8099;DHT22;4092;47.876;9.372;2022-10-29T02:27:50;14.50;99.90
8099;DHT22;4092;47.876;9.372;2022-10-29T02:30:17;14.50;99.90
8099;DHT22;4092;47.876;9.372;2022-10-29T02:32:44;14.50;99.90
8099;DHT22;4092;47.876;9.372;2022-10-29T02:35:13;14.50;99.90
8099;DHT22;4092;47.876;9.372;2022-10-29T02:37:40;14.50;99.90
8099;DHT22;4092;47.876;9.372;2022-10-29T02:40:08;14.40;99.90
8099;DHT22;4092;47.876;9.372;2022-10-29T02:42:35;14.40;99.90
8099;DHT22;4092;47.876;9.372;2022-10-29T02:45:03;14.50;99.90
8099;DHT22;4092;47.876;9.372;2022-10-29T02:47:30;14.60;99.90
8099;DHT22;4092;47.876;9.372;2022-10-29T02:49:57;14.70;99.90
8099;DHT22;4092;47.876;9.372;2022-10-29T02:52:25;14.70;99.90
8099;DHT22;4092;47.876;9.372;2022-10-29T02:54:53;14.80;99.90
8099;DHT22;4092;47.876;9.372;2022-10-29T02:57:20;14.90;99.90
8099;DHT22;4092;47.876;9.372;2022-10-29T02:59:47;14.90;99.90
8099;DHT22;4092;47.876;9.372;2022-10-29T03:02:14;14.80;99.90
8099;DHT22;4092;47.876;9.372;2022-10-29T03:04:40;14.70;99.90
8099;DHT22;4092;47.876;9.372;2022-10-29T03:07:09;14.90;99.90
8099;DHT22;4092;47.876;9.372;2022-10-29T03:09:37;14.80;99.90
8099;DHT22;4092;47.876;9.372;2022-10-29T03:12:05;14.90;99.90
8099;DHT22;4092;47.876;9.372;2022-10-29T03:14:32;14.80;99.90
8099;DHT22;4092;47.876;9.372;2022-10-29T03:16:59;14.80;99.90
8099;DHT22;4092;47.876;9.372;2022-10-29T03:19:26;14.80;99.90
8099;DHT22;4092;47.876;9.372;2022-10-29T03:21:53;14.80;99.90
8099;DHT22;4092;47.876;9.372;2022-10-29T03:24:20;14.80;99.90
8099;DHT22;4092;47.876;9.372;2022-10-29T03:26:48;14.80;99.90
8099;DHT22;4092;47.876;9.372;2022-10-29T03:29:15;14.80;99.90
8099;DHT22;4092;47.876;9.372;2022-10-29T03:31:42;14.60;99.90
8099;DHT22;4092;47.876;9.372;2022-10-29T03:34:09;14.60;99.90
8099;DHT22;4092;47.876;9.372;2022-10-29T03:36:36;14.50;99.90
8099;DHT22;4092;47.876;9.372;2022-10-29T03:39:03;14.40;99.90
8099;DHT22;4092;47.876;9.372;2022-10-29T03:41:30;14.40;99.90
8099;DHT22;4092;47.876;9.372;2022-10-29T03:44:01;14.30;99.90
8099;DHT22;4092;47.876;9.372;2022-10-29T03:46:28;14.20;99.90
8099;DHT22;4092;47.876;9.372;2022-10-29T03:48:55;14.30;99.90
8099;DHT22;4092;47.876;9.372;2022-10-29T03:51:22;14.40;99.90
8099;DHT22;4092;47.876;9.372;2022-10-29T03:53:49;14.50;99.90
8099;DHT22;4092;47.876;9.372;2022-10-29T03:56:16;14.50;99.90
8099;DHT22;4092;47.876;9.372;2022-10-29T03:58:43;14.50;99.90
8099;DHT22;4092;47.876;9.372;2022-10-29T04:01:11;14.60;99.90
8099;DHT22;4092;47.876;9.372;2022-10-29T04:03:39;14.60;99.90
8099;DHT22;4092;47.876;9.372;2022-10-29T04:06:11;14.50;99.90
8099;DHT22;4092;47.876;9.372;2022-10-29T04:08:39;14.40;99.90
8099;DHT22;4092;47.876;9.372;2022-10-29T04:11:08;14.40;99.90
8099;DHT22;4092;47.876;9.372;2022-10-29T04:13:36;14.40;99.90
8099;DHT22;4092;47.876;9.372;2022-10-29T04:16:03;14.30;99.90
8099;DHT22;4092;47.876;9.372;2022-10-29T04:18:32;14.20;99.90
8099;DHT22;4092;47.876;9.372;2022-10-29T04:20:59;14.20;99.90
8099;DHT22;4092;47.876;9.372;2022-10-29T04:23:27;14.10;99.90
8099;DHT22;4092;47.876;9.372;2022-10-29T04:25:55;14.00;99.90
8099;DHT22;4092;47.876;9.372;2022-10-29T04:28:22;14.00;99.90
8099;DHT22;4092;47.876;9.372;2022-10-29T04:30:49;13.90;99.90
8099;DHT22;4092;47.876;9.372;2022-10-29T04:33:16;13.90;99.90
8099;DHT22;4092;47.876;9.372;2022-10-29T04:35:50;14.00;99.90
8099;DHT22;4092;47.876;9.372;2022-10-29T04:38:18;13.90;99.90
8099;DHT22;4092;47.876;9.372;2022-10-29T04:40:45;13.80;99.90
8099;DHT22;4092;47.876;9.372;2022-10-29T04:43:12;13.70;99.90
8099;DHT22;4092;47.876;9.372;2022-10-29T04:45:39;13.70;99.90
8099;DHT22;4092;47.876;9.372;2022-10-29T04:48:06;13.60;99.90
8099;DHT22;4092;47.876;9.372;2022-10-29T04:50:36;13.60;99.90
8099;DHT22;4092;47.876;9.372;2022-10-29T04:53:05;13.60;99.90
8099;DHT22;4092;47.876;9.372;2022-10-29T04:55:35;13.60;99.90
8099;DHT22;4092;47.876;9.372;2022-10-29T04:58:02;13.60;99.90
8099;DHT22;4092;47.876;9.372;2022-10-29T05:00:29;13.60;99.90
8099;DHT22;4092;47.876;9.372;2022-10-29T05:02:56;13.60;99.90
8099;DHT22;4092;47.876;9.372;2022-10-29T05:05:23;13.60;99.90
8099;DHT22;4092;47.876;9.372;2022-10-29T05:07:56;13.60;99.90
8099;DHT22;4092;47.876;9.372;2022-10-29T05:10:26;13.50;99.90
8099;DHT22;4092;47.876;9.372;2022-10-29T05:12:57;13.50;99.90
8099;DHT22;4092;47.876;9.372;2022-10-29T05:15:24;13.50;99.90
8099;DHT22;4092;47.876;9.372;2022-10-29T05:17:51;13.50;99.90
8099;DHT22;4092;47.876;9.372;2022-10-29T05:20:18;13.60;99.90
8099;DHT22;4092;47.876;9.372;2022-10-29T05:22:45;13.60;99.90
8099;DHT22;4092;47.876;9.372;2022-10-29T05:25:13;13.50;99.90
8099;DHT22;4092;47.876;9.372;2022-10-29T05:27:41;13.60;99.90
8099;DHT22;4092;47.876;9.372;2022-10-29T05:30:09;13.60;99.90
8099;DHT22;4092;47.876;9.372;2022-10-29T05:32:36;13.60;99.90
8099;DHT22;4092;47.876;9.372;2022-10-29T05:35:03;13.50;99.90
8099;DHT22;4092;47.876;9.372;2022-10-29T05:37:30;13.50;99.90
8099;DHT22;4092;47.876;9.372;2022-10-29T05:39:57;13.40;99.90
8099;DHT22;4092;47.876;9.372;2022-10-29T05:42:24;13.50;99.90
8099;DHT22;4092;47.876;9.372;2022-10-29T05:44:52;13.50;99.90
8099;DHT22;4092;47.876;9.372;2022-10-29T05:47:19;13.50;99.90
8099;DHT22;4092;47.876;9.372;2022-10-29T05:49:46;13.40;99.90
8099;DHT22;4092;47.876;9.372;2022-10-29T05:52:13;13.50;99.90
8099;DHT22;4092;47.876;9.372;2022-10-29T05:54:40;13.60;99.90
8099;DHT22;4092;47.876;9.372;2022-10-29T05:57:07;13.70;99.90
8099;DHT22;4092;47.876;9.372;2022-10-29T05:59:34;13.70;99.90
8099;DHT22;4092;47.876;9.372;2022-10-29T06:02:03;13.80;99.90
8099;DHT22;4092;47.876;9.372;2022-10-29T06:04:30;13.70;99.90
8099;DHT22;4092;47.876;9.372;2022-10-29T06:06:56;13.70;99.90
8099;DHT22;4092;47.876;9.372;2022-10-29T06:09:23;13.70;99.90
8099;DHT22;4092;47.876;9.372;2022-10-29T06:11:50;13.70;99.90
8099;DHT22;4092;47.876;9.372;2022-10-29T06:14:17;13.80;99.90
8099;DHT22;4092;47.876;9.372;2022-10-29T06:16:44;13.90;99.90
8099;DHT22;4092;47.876;9.372;2022-10-29T06:19:13;13.90;99.90
8099;DHT22;4092;47.876;9.372;2022-10-29T06:21:40;13.80;99.90
8099;DHT22;4092;47.876;9.372;2022-10-29T06:24:07;13.80;99.90
8099;DHT22;4092;47.876;9.372;2022-10-29T06:26:35;13.90;99.90
8099;DHT22;4092;47.876;9.372;2022-10-29T06:29:02;13.80;99.90
8099;DHT22;4092;47.876;9.372;2022-10-29T06:31:29;13.70;99.90
8099;DHT22;4092;47.876;9.372;2022-10-29T06:33:56;13.70;99.90
8099;DHT22;4092;47.876;9.372;2022-10-29T06:36:24;13.70;99.90
8099;DHT22;4092;47.876;9.372;2022-10-29T06:38:51;13.60;99.90
8099;DHT22;4092;47.876;9.372;2022-10-29T06:41:18;13.50;99.90
8099;DHT22;4092;47.876;9.372;2022-10-29T06:43:49;13.60;99.90
8099;DHT22;4092;47.876;9.372;2022-10-29T06:46:16;13.60;99.90
8099;DHT22;4092;47.876;9.372;2022-10-29T06:48:43;13.70;99.90
8099;DHT22;4092;47.876;9.372;2022-10-29T06:51:10;13.70;99.90
8099;DHT22;4092;47.876;9.372;2022-10-29T06:53:39;13.70;99.90
8099;DHT22;4092;47.876;9.372;2022-10-29T06:56:06;13.70;99.90
8099;DHT22;4092;47.876;9.372;2022-10-29T06:58:33;13.70;99.90
8099;DHT22;4092;47.876;9.372;2022-10-29T07:01:00;13.70;99.90
8099;DHT22;4092;47.876;9.372;2022-10-29T07:03:27;13.70;99.90
8099;DHT22;4092;47.876;9.372;2022-10-29T07:05:55;13.80;99.90
8099;DHT22;4092;47.876;9.372;2022-10-29T07:08:22;13.80;99.90
8099;DHT22;4092;47.876;9.372;2022-10-29T07:10:51;13.90;99.90
8099;DHT22;4092;47.876;9.372;2022-10-29T07:13:19;14.00;99.90
8099;DHT22;4092;47.876;9.372;2022-10-29T07:15:46;14.20;99.90
8099;DHT22;4092;47.876;9.372;2022-10-29T07:18:13;14.20;99.90
8099;DHT22;4092;47.876;9.372;2022-10-29T07:20:42;14.40;99.90
8099;DHT22;4092;47.876;9.372;2022-10-29T07:23:10;14.50;99.90
8099;DHT22;4092;47.876;9.372;2022-10-29T07:25:38;14.70;99.90
8099;DHT22;4092;47.876;9.372;2022-10-29T07:28:09;14.90;99.90
8099;DHT22;4092;47.876;9.372;2022-10-29T07:30:36;15.00;99.90
8099;DHT22;4092;47.876;9.372;2022-10-29T07:33:04;15.20;99.90
8099;DHT22;4092;47.876;9.372;2022-10-29T07:35:31;15.30;99.90
8099;DHT22;4092;47.876;9.372;2022-10-29T07:37:59;15.40;99.90
8099;DHT22;4092;47.876;9.372;2022-10-29T07:40:25;15.60;99.90
8099;DHT22;4092;47.876;9.372;2022-10-29T07:42:53;15.80;99.90
8099;DHT22;4092;47.876;9.372;2022-10-29T07:45:21;16.00;99.90
8099;DHT22;4092;47.876;9.372;2022-10-29T07:47:50;16.10;99.90
8099;DHT22;4092;47.876;9.372;2022-10-29T07:50:23;16.20;99.90
8099;DHT22;4092;47.876;9.372;2022-10-29T07:52:50;16.20;99.90
8099;DHT22;4092;47.876;9.372;2022-10-29T07:55:17;16.30;99.90
8099;DHT22;4092;47.876;9.372;2022-10-29T07:57:44;16.40;99.90
8099;DHT22;4092;47.876;9.372;2022-10-29T08:00:12;16.50;99.90
8099;DHT22;4092;47.876;9.372;2022-10-29T08:02:40;16.60;99.90
8099;DHT22;4092;47.876;9.372;2022-10-29T08:05:08;16.60;99.90
8099;DHT22;4092;47.876;9.372;2022-10-29T08:07:35;16.70;99.90
8099;DHT22;4092;47.876;9.372;2022-10-29T08:10:02;16.80;99.90
8099;DHT22;4092;47.876;9.372;2022-10-29T08:12:29;16.90;99.90
8099;DHT22;4092;47.876;9.372;2022-10-29T08:14:56;17.00;99.90
8099;DHT22;4092;47.876;9.372;2022-10-29T08:17:23;17.20;99.90
8099;DHT22;4092;47.876;9.372;2022-10-29T08:19:51;17.30;99.90
8099;DHT22;4092;47.876;9.372;2022-10-29T08:22:18;17.30;99.90
8099;DHT22;4092;47.876;9.372;2022-10-29T08:24:45;17.40;99.90
8099;DHT22;4092;47.876;9.372;2022-10-29T08:27:12;17.50;99.90
8099;DHT22;4092;47.876;9.372;2022-10-29T08:29:39;17.60;99.90
8099;DHT22;4092;47.876;9.372;2022-10-29T08:32:06;17.80;99.90
8099;DHT22;4092;47.876;9.372;2022-10-29T08:34:33;17.80;99.90
8099;DHT22;4092;47.876;9.372;2022-10-29T08:37:02;17.90;99.90
8099;DHT22;4092;47.876;9.372;2022-10-29T08:39:29;18.00;99.90
8099;DHT22;4092;47.876;9.372;2022-10-29T08:42:04;18.10;99.90
8099;DHT22;4092;47.876;9.372;2022-10-29T08:47:43;18.30;99.90
8099;DHT22;4092;47.876;9.372;2022-10-29T08:50:18;18.40;99.90
8099;DHT22;4092;47.876;9.372;2022-10-29T08:52:51;18.50;99.90
8099;DHT22;4092;47.876;9.372;2022-10-29T08:55:22;18.70;99.90
8099;DHT22;4092;47.876;9.372;2022-10-29T08:57:53;18.80;99.90
8099;DHT22;4092;47.876;9.372;2022-10-29T09:00:22;18.80;99.90
8099;DHT22;4092;47.876;9.372;2022-10-29T09:02:53;18.80;99.90
8099;DHT22;4092;47.876;9.372;2022-10-29T09:05:23;18.90;99.90
8099;DHT22;4092;47.876;9.372;2022-10-29T09:08:06;19.00;99.90
8099;DHT22;4092;47.876;9.372;2022-10-29T09:10:41;19.10;99.90
8099;DHT22;4092;47.876;9.372;2022-10-29T09:13:26;19.20;99.90
8099;DHT22;4092;47.876;9.372;2022-10-29T09:16:04;19.20;99.90
8099;DHT22;4092;47.876;9.372;2022-10-29T09:18:42;19.20;99.90
8099;DHT22;4092;47.876;9.372;2022-10-29T09:21:22;19.20;99.90
8099;DHT22;4092;47.876;9.372;2022-10-29T09:24:03;19.20;99.90
8099;DHT22;4092;47.876;9.372;2022-10-29T09:26:39;19.20;99.90
8099;DHT22;4092;47.876;9.372;2022-10-29T09:29:36;19.30;99.90
8099;DHT22;4092;47.876;9.372;2022-10-29T09:32:12;19.30;99.90
8099;DHT22;4092;47.876;9.372;2022-10-29T09:34:42;19.20;99.90
8099;DHT22;4092;47.876;9.372;2022-10-29T09:37:14;19.20;99.90
8099;DHT22;4092;47.876;9.372;2022-10-29T09:39:44;19.20;99.90
8099;DHT22;4092;47.876;9.372;2022-10-29T09:42:15;19.30;99.90
8099;DHT22;4092;47.876;9.372;2022-10-29T09:44:48;19.30;99.90
8099;DHT22;4092;47.876;9.372;2022-10-29T09:47:24;19.40;99.90
8099;DHT22;4092;47.876;9.372;2022-10-29T09:50:02;19.60;99.90
8099;DHT22;4092;47.876;9.372;2022-10-29T09:52:34;19.60;99.90
8099;DHT22;4092;47.876;9.372;2022-10-29T09:55:05;19.60;99.90
8099;DHT22;4092;47.876;9.372;2022-10-29T09:57:34;19.70;99.90
8099;DHT22;4092;47.876;9.372;2022-10-29T10:00:05;19.70;99.90
8099;DHT22;4092;47.876;9.372;2022-10-29T10:02:36;19.70;99.90
8099;DHT22;4092;47.876;9.372;2022-10-29T10:05:06;19.80;99.90
8099;DHT22;4092;47.876;9.372;2022-10-29T10:07:33;19.80;99.90
8099;DHT22;4092;47.876;9.372;2022-10-29T10:10:01;19.90;99.90
8099;DHT22;4092;47.876;9.372;2022-10-29T10:12:43;20.00;99.90
8099;DHT22;4092;47.876;9.372;2022-10-29T10:15:20;19.90;99.90
8099;DHT22;4092;47.876;9.372;2022-10-29T10:17:57;20.00;99.90
8099;DHT22;4092;47.876;9.372;2022-10-29T10:20:37;20.00;99.90
8099;DHT22;4092;47.876;9.372;2022-10-29T10:23:21;20.00;99.90
8099;DHT22;4092;47.876;9.372;2022-10-29T10:25:50;20.10;99.90
8099;DHT22;4092;47.876;9.372;2022-10-29T10:28:20;20.20;99.90
8099;DHT22;4092;47.876;9.372;2022-10-29T10:31:06;20.30;99.90
8099;DHT22;4092;47.876;9.372;2022-10-29T10:33:35;20.30;99.90
8099;DHT22;4092;47.876;9.372;2022-10-29T10:36:05;20.30;99.90
8099;DHT22;4092;47.876;9.372;2022-10-29T10:38:39;20.20;99.90
8099;DHT22;4092;47.876;9.372;2022-10-29T10:41:09;20.20;99.90
8099;DHT22;4092;47.876;9.372;2022-10-29T10:43:42;20.30;99.90
8099;DHT22;4092;47.876;9.372;2022-10-29T10:46:15;20.30;99.90
8099;DHT22;4092;47.876;9.372;2022-10-29T10:48:56;20.40;99.90
8099;DHT22;4092;47.876;9.372;2022-10-29T10:51:26;20.40;99.90
8099;DHT22;4092;47.876;9.372;2022-10-29T10:53:55;20.40;99.90
8099;DHT22;4092;47.876;9.372;2022-10-29T10:56:22;20.50;99.90
8099;DHT22;4092;47.876;9.372;2022-10-29T10:58:57;20.60;99.90
8099;DHT22;4092;47.876;9.372;2022-10-29T11:01:31;20.80;99.90
8099;DHT22;4092;47.876;9.372;2022-10-29T11:04:07;20.90;99.90
8099;DHT22;4092;47.876;9.372;2022-10-29T11:06:38;21.10;99.90
8099;DHT22;4092;47.876;9.372;2022-10-29T11:09:11;21.20;99.90
8099;DHT22;4092;47.876;9.372;2022-10-29T11:11:45;21.20;99.90
8099;DHT22;4092;47.876;9.372;2022-10-29T11:14:21;21.20;99.90
8099;DHT22;4092;47.876;9.372;2022-10-29T11:16:53;21.30;99.90
8099;DHT22;4092;47.876;9.372;2022-10-29T11:19:26;21.30;99.90
8099;DHT22;4092;47.876;9.372;2022-10-29T11:22:02;21.30;99.90
8099;DHT22;4092;47.876;9.372;2022-10-29T11:24:40;21.30;99.90
8099;DHT22;4092;47.876;9.372;2022-10-29T11:27:19;21.30;99.90
8099;DHT22;4092;47.876;9.372;2022-10-29T11:29:56;21.30;99.90
8099;DHT22;4092;47.876;9.372;2022-10-29T11:32:32;21.30;99.90
8099;DHT22;4092;47.876;9.372;2022-10-29T11:35:07;21.30;99.90
8099;DHT22;4092;47.876;9.372;2022-10-29T11:37:41;21.30;99.90
8099;DHT22;4092;47.876;9.372;2022-10-29T11:40:12;21.40;99.90
8099;DHT22;4092;47.876;9.372;2022-10-29T11:42:40;21.50;99.90
8099;DHT22;4092;47.876;9.372;2022-10-29T11:45:16;21.50;99.90
8099;DHT22;4092;47.876;9.372;2022-10-29T11:48:02;21.60;99.90
8099;DHT22;4092;47.876;9.372;2022-10-29T11:50:39;21.80;99.90
8099;DHT22;4092;47.876;9.372;2022-10-29T11:53:20;21.90;99.90
8099;DHT22;4092;47.876;9.372;2022-10-29T11:55:58;22.00;99.90
8099;DHT22;4092;47.876;9.372;2022-10-29T11:58:33;22.10;99.90
8099;DHT22;4092;47.876;9.372;2022-10-29T12:01:08;22.30;99.90
8099;DHT22;4092;47.876;9.372;2022-10-29T12:04:00;22.30;99.90
8099;DHT22;4092;47.876;9.372;2022-10-29T12:06:34;22.20;99.90
8099;DHT22;4092;47.876;9.372;2022-10-29T12:09:34;22.10;99.90
8099;DHT22;4092;47.876;9.372;2022-10-29T12:12:08;21.90;99.90
8099;DHT22;4092;47.876;9.372;2022-10-29T12:14:43;22.00;99.90
8099;DHT22;4092;47.876;9.372;2022-10-29T12:17:17;21.90;99.90
8099;DHT22;4092;47.876;9.372;2022-10-29T12:19:53;22.00;99.90
8099;DHT22;4092;47.876;9.372;2022-10-29T12:22:30;22.00;99.90
8099;DHT22;4092;47.876;9.372;2022-10-29T12:25:17;22.10;99.90
8099;DHT22;4092;47.876;9.372;2022-10-29T12:27:53;22.00;99.90
8099;DHT22;4092;47.876;9.372;2022-10-29T12:30:22;22.10;99.90
8099;DHT22;4092;47.876;9.372;2022-10-29T12:32:57;22.10;99.90
8099;DHT22;4092;47.876;9.372;2022-10-29T12:35:35;22.10;99.90
8099;DHT22;4092;47.876;9.372;2022-10-29T12:38:16;22.20;99.90
8099;DHT22;4092;47.876;9.372;2022-10-29T12:40:50;22.20;99.90
8099;DHT22;4092;47.876;9.372;2022-10-29T12:43:22;22.10;99.90
8099;DHT22;4092;47.876;9.372;2022-10-29T12:45:54;22.20;99.90
8099;DHT22;4092;47.876;9.372;2022-10-29T12:48:33;22.20;99.90
8099;DHT22;4092;47.876;9.372;2022-10-29T12:51:06;22.20;99.90
8099;DHT22;4092;47.876;9.372;2022-10-29T12:53:43;22.20;99.90
8099;DHT22;4092;47.876;9.372;2022-10-29T12:56:12;22.10;99.90
8099;DHT22;4092;47.876;9.372;2022-10-29T12:58:45;22.00;99.90
8099;DHT22;4092;47.876;9.372;2022-10-29T13:01:43;22.00;99.90
8099;DHT22;4092;47.876;9.372;2022-10-29T13:04:27;21.90;99.90
8099;DHT22;4092;47.876;9.372;2022-10-29T13:07:03;22.00;99.90
8099;DHT22;4092;47.876;9.372;2022-10-29T13:09:31;22.20;99.90
8099;DHT22;4092;47.876;9.372;2022-10-29T13:12:03;22.40;99.90
8099;DHT22;4092;47.876;9.372;2022-10-29T13:14:39;22.50;99.90
8099;DHT22;4092;47.876;9.372;2022-10-29T13:17:26;22.70;99.90
8099;DHT22;4092;47.876;9.372;2022-10-29T13:19:57;22.90;99.90
8099;DHT22;4092;47.876;9.372;2022-10-29T13:22:49;22.90;99.90
8099;DHT22;4092;47.876;9.372;2022-10-29T13:25:42;23.00;99.90
8099;DHT22;4092;47.876;9.372;2022-10-29T13:28:50;23.00;99.90
8099;DHT22;4092;47.876;9.372;2022-10-29T13:31:49;23.00;99.90
8099;DHT22;4092;47.876;9.372;2022-10-29T13:34:50;23.00;99.90
8099;DHT22;4092;47.876;9.372;2022-10-29T13:43:30;22.80;99.90
8099;DHT22;4092;47.876;9.372;2022-10-29T13:46:25;22.70;99.90
8099;DHT22;4092;47.876;9.372;2022-10-29T13:48:54;22.70;99.90
8099;DHT22;4092;47.876;9.372;2022-10-29T13:51:27;22.80;99.90
8099;DHT22;4092;47.876;9.372;2022-10-29T13:53:58;22.80;99.90
8099;DHT22;4092;47.876;9.372;2022-10-29T13:56:34;22.80;99.90
8099;DHT22;4092;47.876;9.372;2022-10-29T13:59:07;22.80;99.90
8099;DHT22;4092;47.876;9.372;2022-10-29T14:01:40;22.90;99.90
8099;DHT22;4092;47.876;9.372;2022-10-29T14:04:21;22.90;99.90
8099;DHT22;4092;47.876;9.372;2022-10-29T14:06:49;22.90;99.90
8099;DHT22;4092;47.876;9.372;2022-10-29T14:09:21;22.80;99.90
8099;DHT22;4092;47.876;9.372;2022-10-29T14:11:54;22.70;99.90
8099;DHT22;4092;47.876;9.372;2022-10-29T14:14:29;22.70;99.90
8099;DHT22;4092;47.876;9.372;2022-10-29T14:17:12;22.60;99.90
8099;DHT22;4092;47.876;9.372;2022-10-29T14:19:47;22.60;99.90
8099;DHT22;4092;47.876;9.372;2022-10-29T14:22:34;22.60;99.90
8099;DHT22;4092;47.876;9.372;2022-10-29T14:27:45;22.70;99.90
8099;DHT22;4092;47.876;9.372;2022-10-29T14:30:18;22.70;99.90
8099;DHT22;4092;47.876;9.372;2022-10-29T14:32:45;22.70;99.90
8099;DHT22;4092;47.876;9.372;2022-10-29T14:35:15;22.70;99.90
8099;DHT22;4092;47.876;9.372;2022-10-29T14:37:43;22.70;99.90
8099;DHT22;4092;47.876;9.372;2022-10-29T14:40:20;22.80;99.90
8099;DHT22;4092;47.876;9.372;2022-10-29T14:42:49;22.90;99.90
8099;DHT22;4092;47.876;9.372;2022-10-29T14:45:22;22.90;99.90
8099;DHT22;4092;47.876;9.372;2022-10-29T14:47:51;22.90;99.90
8099;DHT22;4092;47.876;9.372;2022-10-29T14:50:21;22.90;99.90
8099;DHT22;4092;47.876;9.372;2022-10-29T14:52:51;22.90;99.90
8099;DHT22;4092;47.876;9.372;2022-10-29T14:55:21;22.90;99.90
8099;DHT22;4092;47.876;9.372;2022-10-29T14:57:56;22.90;99.90
8099;DHT22;4092;47.876;9.372;2022-10-29T15:00:29;22.70;99.90
8099;DHT22;4092;47.876;9.372;2022-10-29T15:02:57;22.70;99.90
8099;DHT22;4092;47.876;9.372;2022-10-29T15:05:26;22.60;99.90
8099;DHT22;4092;47.876;9.372;2022-10-29T15:08:04;22.40;99.90
8099;DHT22;4092;47.876;9.372;2022-10-29T15:10:31;22.20;99.90
8099;DHT22;4092;47.876;9.372;2022-10-29T15:13:19;22.00;99.90
8099;DHT22;4092;47.876;9.372;2022-10-29T15:15:52;21.70;99.90
8099;DHT22;4092;47.876;9.372;2022-10-29T15:18:21;21.50;99.90
8099;DHT22;4092;47.876;9.372;2022-10-29T15:20:49;21.20;99.90
8099;DHT22;4092;47.876;9.372;2022-10-29T15:23:21;20.90;99.90
8099;DHT22;4092;47.876;9.372;2022-10-29T15:25:51;20.60;99.90
8099;DHT22;4092;47.876;9.372;2022-10-29T15:28:22;20.30;99.90
8099;DHT22;4092;47.876;9.372;2022-10-29T15:30:51;20.20;99.90
8099;DHT22;4092;47.876;9.372;2022-10-29T15:33:21;20.00;99.90
8099;DHT22;4092;47.876;9.372;2022-10-29T15:35:52;19.90;99.90
8099;DHT22;4092;47.876;9.372;2022-10-29T15:41:44;19.70;99.90
8099;DHT22;4092;47.876;9.372;2022-10-29T15:44:34;19.50;99.90
8099;DHT22;4092;47.876;9.372;2022-10-29T15:47:20;19.30;99.90
8099;DHT22;4092;47.876;9.372;2022-10-29T15:49:51;19.10;99.90
8099;DHT22;4092;47.876;9.372;2022-10-29T15:52:19;19.10;99.90
8099;DHT22;4092;47.876;9.372;2022-10-29T15:54:47;19.00;99.90
8099;DHT22;4092;47.876;9.372;2022-10-29T15:57:15;18.90;99.90
8099;DHT22;4092;47.876;9.372;2022-10-29T15:59:42;18.80;99.90
8099;DHT22;4092;47.876;9.372;2022-10-29T16:02:12;18.60;99.90
8099;DHT22;4092;47.876;9.372;2022-10-29T16:04:39;18.40;99.90
8099;DHT22;4092;47.876;9.372;2022-10-29T16:07:09;18.20;99.90
8099;DHT22;4092;47.876;9.372;2022-10-29T16:09:42;18.10;99.90
8099;DHT22;4092;47.876;9.372;2022-10-29T16:12:10;18.10;99.90
8099;DHT22;4092;47.876;9.372;2022-10-29T16:14:38;17.90;99.90
8099;DHT22;4092;47.876;9.372;2022-10-29T16:17:12;17.80;99.90
8099;DHT22;4092;47.876;9.372;2022-10-29T16:19:39;17.70;99.90
8099;DHT22;4092;47.876;9.372;2022-10-29T16:22:11;17.70;99.90
8099;DHT22;4092;47.876;9.372;2022-10-29T16:24:38;17.60;99.90
8099;DHT22;4092;47.876;9.372;2022-10-29T16:27:12;17.50;99.90
8099;DHT22;4092;47.876;9.372;2022-10-29T16:29:39;17.40;99.90
8099;DHT22;4092;47.876;9.372;2022-10-29T16:32:08;17.30;99.90
8099;DHT22;4092;47.876;9.372;2022-10-29T16:34:36;17.20;99.90
8099;DHT22;4092;47.876;9.372;2022-10-29T16:37:03;17.10;99.90
8099;DHT22;4092;47.876;9.372;2022-10-29T16:39:31;17.00;99.90
8099;DHT22;4092;47.876;9.372;2022-10-29T16:41:58;17.00;99.90
8099;DHT22;4092;47.876;9.372;2022-10-29T16:44:25;16.80;99.90
8099;DHT22;4092;47.876;9.372;2022-10-29T16:46:52;16.80;99.90